Bookmark and Share
Track history (hours):
 

Kopernik

Last reported at 2014-Apr-24 01:32 UTC. Time now 2014-Apr-24 02:28 UTC.
Position N 55°11' E 013°52'.

Length 160 m; draft 5.6 m.

Type: Passenger vessel. MMSI: 261449000.

NotesDate/timePositionNaut miles runAvg speedWind from/ knotsBaromVisibWave heightAir tempDewpointWater temp
2014-Apr-24 01:32N 55°11' E 013°52'1211.2
2014-Apr-24 00:30N 54°59' E 013°55'1010.0
2014-Apr-23 23:32N 54°50' E 013°60'1010.5
2014-Apr-23 22:33N 54°40' E 014°03'10 9.9
2014-Apr-23 21:34N 54°30' E 014°06'10 9.7
2014-Apr-23 20:34N 54°21' E 014°09'10 9.8
2014-Apr-23 19:33N 54°11' E 014°13'10 9.8
2014-Apr-23 18:33N 54°02' E 014°15'8 7.5
2014-Apr-23 17:31N 53°54' E 014°15'0 0.1
2014-Apr-23 16:31N 53°54' E 014°15'0 0.0
2014-Apr-23 15:31N 53°54' E 014°15'2 2.0
2014-Apr-23 14:33N 53°56' E 014°17'1111.4
2014-Apr-23 13:34N 54°07' E 014°13'1211.5
2014-Apr-23 12:33N 54°18' E 014°09'1111.3
2014-Apr-23 11:33N 54°29' E 014°06'1313.5
2014-Apr-23 10:34N 54°42' E 014°01'1514.4
2014-Apr-23 09:32N 54°57' E 013°55'1414.5
2014-Apr-23 08:32N 55°11' E 013°50'1414.3
2014-Apr-23 07:33N 55°25' E 013°49'1 0.2
2014-Apr-23 04:20N 55°26' E 013°50'0 0.0
2014-Apr-23 03:32N 55°26' E 013°50'1 0.9
2014-Apr-23 02:34N 55°25' E 013°49'10 9.9
2014-Apr-23 01:33N 55°15' E 013°51'10 9.8
2014-Apr-23 00:33N 55°05' E 013°54'1110.5
2014-Apr-22 23:33N 54°55' E 013°57'1110.6
2014-Apr-22 22:33N 54°44' E 014°01'1010.4
2014-Apr-22 21:33N 54°34' E 014°05'1110.7
2014-Apr-22 20:33N 54°24' E 014°08'1210.8
2014-Apr-22 19:29N 54°12' E 014°12'1010.8
2014-Apr-22 18:34N 54°03' E 014°15'9 8.6
2014-Apr-22 17:33N 53°54' E 014°15'0 0.1
2014-Apr-22 16:33N 53°54' E 014°15'0 0.0
2014-Apr-22 15:33N 53°54' E 014°15'2 1.6
2014-Apr-22 14:33N 53°55' E 014°17'1312.6
2014-Apr-22 13:33N 54°07' E 014°13'1211.8
2014-Apr-22 12:33N 54°19' E 014°09'1211.7
2014-Apr-22 11:33N 54°31' E 014°05'1211.8
2014-Apr-22 10:33N 54°42' E 014°01'1514.4
2014-Apr-22 09:31N 54°57' E 013°56'1515.1
2014-Apr-22 08:32N 55°11' E 013°49'1414.4
2014-Apr-22 07:33N 55°25' E 013°49'0 0.1
2014-Apr-22 05:06N 55°26' E 013°50'0 0.0
2014-Apr-22 04:18N 55°26' E 013°50'0 0.0
2014-Apr-22 03:31N 55°26' E 013°50'8 8.9
2014-Apr-22 02:33N 55°17' E 013°50'1110.6
2014-Apr-22 01:33N 55°07' E 013°54'1110.7
2014-Apr-22 00:33N 54°56' E 013°57'1111.1
2014-Apr-21 23:33N 54°45' E 014°01'1111.1
2014-Apr-21 22:33N 54°34' E 014°04'1110.8
2014-Apr-21 21:33N 54°24' E 014°05'1110.8
2014-Apr-21 20:33N 54°13' E 014°09'1110.7
2014-Apr-21 19:33N 54°03' E 014°15'9 8.7
2014-Apr-21 18:33N 53°54' E 014°15'0 0.1
2014-Apr-21 17:33N 53°54' E 014°15'0 0.2
2014-Apr-21 16:33N 53°54' E 014°16'0 0.5
2014-Apr-21 15:32N 53°54' E 014°16'0 0.0
2014-Apr-21 14:32N 53°54' E 014°16'0 0.0
2014-Apr-21 13:29N 53°54' E 014°16'0 0.0
2014-Apr-21 12:32N 53°54' E 014°16'0 0.0
2014-Apr-21 11:32N 53°54' E 014°16'0 0.0
2014-Apr-21 10:32N 53°54' E 014°16'0 0.0
2014-Apr-21 09:32N 53°54' E 014°16'0 0.0
2014-Apr-21 08:32N 53°54' E 014°16'0 0.0
2014-Apr-21 07:32N 53°54' E 014°16'0 0.0
2014-Apr-21 06:32N 53°54' E 014°16'0 0.0
2014-Apr-21 05:32N 53°54' E 014°16'0 0.0
2014-Apr-21 04:32N 53°54' E 014°16'0 0.0
2014-Apr-21 03:32N 53°54' E 014°16'0 0.0
2014-Apr-21 02:32N 53°54' E 014°16'0 0.0
2014-Apr-21 01:32N 53°54' E 014°16'0 0.0
2014-Apr-21 00:32N 53°54' E 014°16'0 0.0
2014-Apr-20 23:32N 53°54' E 014°16'0 0.0
2014-Apr-20 22:32N 53°54' E 014°16'0 0.0
2014-Apr-20 21:32N 53°54' E 014°16'0 0.0
2014-Apr-20 20:32N 53°54' E 014°16'0 0.0
2014-Apr-20 19:32N 53°54' E 014°16'0 0.0
2014-Apr-20 18:32N 53°54' E 014°16'0 0.0
2014-Apr-20 17:32N 53°54' E 014°16'0 0.0
2014-Apr-20 16:32N 53°54' E 014°16'0 0.0
2014-Apr-20 15:32N 53°54' E 014°16'0 0.0
2014-Apr-20 14:32N 53°54' E 014°16'0 0.0
2014-Apr-20 13:32N 53°54' E 014°16'0 0.0
2014-Apr-20 12:32N 53°54' E 014°16'0 0.0
2014-Apr-20 11:32N 53°54' E 014°16'0 0.0
2014-Apr-20 10:32N 53°54' E 014°16'0 0.0
2014-Apr-20 09:32N 53°54' E 014°16'0 0.0
2014-Apr-20 08:32N 53°54' E 014°16'0 0.0
2014-Apr-20 07:32N 53°54' E 014°16'0 0.0
2014-Apr-20 06:32N 53°54' E 014°16'0 0.0
2014-Apr-20 05:29N 53°54' E 014°16'0 0.0
2014-Apr-20 04:32N 53°54' E 014°16'0 0.0
2014-Apr-20 03:32N 53°54' E 014°16'0 0.0
2014-Apr-20 02:32N 53°54' E 014°16'0 0.0
2014-Apr-20 01:32N 53°54' E 014°16'0 0.0
2014-Apr-20 00:32N 53°54' E 014°16'0 0.0
2014-Apr-19 23:32N 53°54' E 014°16'0 0.0
2014-Apr-19 22:32N 53°54' E 014°16'0 0.0
2014-Apr-19 21:32N 53°54' E 014°16'0 0.0
2014-Apr-19 20:32N 53°54' E 014°16'0 0.0
2014-Apr-19 19:32N 53°54' E 014°16'0 0.0
2014-Apr-19 18:32N 53°54' E 014°16'0 0.0
2014-Apr-19 17:32N 53°54' E 014°16'0 0.0
2014-Apr-19 16:32N 53°54' E 014°16'0 0.0
2014-Apr-19 15:32N 53°54' E 014°16'0 0.0
2014-Apr-19 14:34N 53°54' E 014°16'0 0.0
2014-Apr-19 13:34N 53°54' E 014°16'0 0.0
2014-Apr-19 12:34N 53°54' E 014°16'0 0.0
2014-Apr-19 11:34N 53°54' E 014°16'0 0.0
2014-Apr-19 10:34N 53°54' E 014°16'0 0.0
2014-Apr-19 09:34N 53°54' E 014°16'0 0.0
2014-Apr-19 08:34N 53°54' E 014°16'0 0.0
2014-Apr-19 07:34N 53°54' E 014°16'0 0.0
2014-Apr-19 06:34N 53°54' E 014°16'0 0.0
2014-Apr-19 05:34N 53°54' E 014°16'0 0.0
2014-Apr-19 04:33N 53°54' E 014°16'0 0.0
2014-Apr-19 03:34N 53°54' E 014°16'0 0.0
2014-Apr-19 02:34N 53°54' E 014°16'0 0.0
2014-Apr-19 01:34N 53°54' E 014°16'0 0.0
2014-Apr-19 00:34N 53°54' E 014°16'0 0.0
2014-Apr-18 23:34N 53°54' E 014°16'0 0.0
2014-Apr-18 22:34N 53°54' E 014°16'0 0.0
2014-Apr-18 21:33N 53°54' E 014°16'0 0.0
2014-Apr-18 20:33N 53°54' E 014°16'0 0.0
2014-Apr-18 19:34N 53°54' E 014°16'0 0.0
2014-Apr-18 18:34N 53°54' E 014°16'0 0.0
2014-Apr-18 17:33N 53°54' E 014°16'0 0.0
2014-Apr-18 16:33N 53°54' E 014°16'1 0.8
2014-Apr-18 15:32N 53°54' E 014°15'1 1.4
2014-Apr-18 14:33N 53°55' E 014°17'1111.0
2014-Apr-18 13:33N 54°06' E 014°13'1313.0
2014-Apr-18 12:34N 54°19' E 014°09'1414.4
2014-Apr-18 11:34N 54°33' E 014°04'1414.4
2014-Apr-18 10:34N 54°47' E 013°58'1514.7
2014-Apr-18 09:33N 55°01' E 013°51'1414.3
2014-Apr-18 08:33N 55°15' E 013°49'10 2.4
2014-Apr-18 04:13N 55°26' E 013°50'0 0.0
2014-Apr-18 03:31N 55°26' E 013°50'2 2.0
2014-Apr-18 02:33N 55°24' E 013°48'10 9.9
2014-Apr-18 01:33N 55°14' E 013°51'9 9.4
2014-Apr-18 00:33N 55°05' E 013°54'1010.5
2014-Apr-17 23:33N 54°54' E 013°58'1010.4
2014-Apr-17 22:33N 54°44' E 014°02'1010.4
2014-Apr-17 21:33N 54°34' E 014°05'1010.3
2014-Apr-17 20:33N 54°24' E 014°10'1110.7
2014-Apr-17 19:33N 54°14' E 014°13'1010.4
2014-Apr-17 18:33N 54°03' E 014°15'9 9.2
2014-Apr-17 17:33N 53°54' E 014°15'0 0.1
2014-Apr-17 16:33N 53°54' E 014°15'0 0.0
2014-Apr-17 15:33N 53°54' E 014°15'1 1.4
2014-Apr-17 14:33N 53°55' E 014°17'1111.3
2014-Apr-17 13:33N 54°06' E 014°13'1111.2
2014-Apr-17 12:33N 54°17' E 014°10'1413.7
2014-Apr-17 11:33N 54°31' E 014°05'1414.2
2014-Apr-17 10:33N 54°44' E 013°60'1414.3
2014-Apr-17 09:33N 54°58' E 013°54'1714.4
2014-Apr-17 08:21N 55°16' E 013°49'10 3.5
2014-Apr-17 05:29N 55°26' E 013°50'0 0.0
2014-Apr-17 04:32N 55°26' E 013°50'0 0.0
2014-Apr-17 03:32N 55°26' E 013°50'2 2.4
2014-Apr-17 02:33N 55°23' E 013°48'9 9.3
2014-Apr-17 01:33N 55°14' E 013°51'10 9.6
2014-Apr-17 00:33N 55°05' E 013°54'1010.3
2014-Apr-16 23:33N 54°55' E 013°58'1010.2
2014-Apr-16 22:33N 54°45' E 014°01'1010.4
2014-Apr-16 21:33N 54°35' E 014°05'1110.9
2014-Apr-16 20:33N 54°24' E 014°09'1111.0
2014-Apr-16 19:33N 54°13' E 014°12'1110.9
2014-Apr-16 18:33N 54°02' E 014°15'8 8.4
2014-Apr-16 17:33N 53°54' E 014°15'0 0.1
2014-Apr-16 16:33N 53°54' E 014°15'0 0.0
2014-Apr-16 15:33N 53°54' E 014°15'1 1.4
2014-Apr-16 14:33N 53°55' E 014°17'1111.3
2014-Apr-16 13:33N 54°06' E 014°13'1211.7
2014-Apr-16 12:33N 54°18' E 014°10'1211.8
2014-Apr-16 11:33N 54°29' E 014°06'1413.9
2014-Apr-16 10:33N 54°43' E 014°01'1514.8
2014-Apr-16 09:34N 54°57' E 013°53'1515.1
2014-Apr-16 08:34N 55°12' E 013°48'1413.6
2014-Apr-16 07:32N 55°25' E 013°49'0 0.0
2014-Apr-16 05:32N 55°26' E 013°50'0 0.0
2014-Apr-16 04:32N 55°26' E 013°50'0 0.0
2014-Apr-16 03:32N 55°26' E 013°50'2 1.9
2014-Apr-16 02:33N 55°24' E 013°48'1010.0
2014-Apr-16 01:33N 55°14' E 013°50'1010.3
2014-Apr-16 00:33N 55°04' E 013°54'1110.8
2014-Apr-15 23:33N 54°53' E 013°58'1110.6
2014-Apr-15 22:33N 54°43' E 014°02'1010.4
2014-Apr-15 21:33N 54°33' E 014°05'1010.5
2014-Apr-15 20:33N 54°23' E 014°10'1010.4
2014-Apr-15 19:33N 54°12' E 014°13'1010.2
2014-Apr-15 18:33N 54°02' E 014°16'8 8.2
2014-Apr-15 17:32N 53°54' E 014°15'0 0.1
2014-Apr-15 16:32N 53°54' E 014°15'0 0.0
2014-Apr-15 15:31N 53°54' E 014°15'1 1.4
2014-Apr-15 14:33N 53°55' E 014°17'12 5.8
2014-Apr-15 12:34N 54°06' E 014°13'1212.1
2014-Apr-15 11:34N 54°18' E 014°09'1212.0
2014-Apr-15 10:34N 54°30' E 014°05'1312.7
2014-Apr-15 09:34N 54°42' E 014°02'3015.1
2014-Apr-15 07:34N 55°12' E 013°51'14 3.4
2014-Apr-15 03:34N 55°26' E 013°50'0 0.0
2014-Apr-15 02:33N 55°26' E 013°50'2 1.9
2014-Apr-15 01:34N 55°24' E 013°48'1110.7
2014-Apr-15 00:33N 55°13' E 013°51'9 9.6
2014-Apr-14 23:34N 55°04' E 013°54'10 9.9
2014-Apr-14 22:34N 54°54' E 013°58'10 9.5
2014-Apr-14 21:34N 54°45' E 014°01'10 9.3
2014-Apr-14 20:30N 54°35' E 014°05'9 9.4
2014-Apr-14 19:34N 54°27' E 014°09'1111.5
2014-Apr-14 18:34N 54°15' E 014°12'1212.4
2014-Apr-14 17:34N 54°03' E 014°15'9 9.1
2014-Apr-14 16:33N 53°54' E 014°15'0 0.1
2014-Apr-14 15:33N 53°54' E 014°15'0 0.0
2014-Apr-14 14:33N 53°54' E 014°15'1 1.1
2014-Apr-14 13:34N 53°55' E 014°17'2411.9
2014-Apr-14 11:33N 54°18' E 014°10'1212.1
2014-Apr-14 10:34N 54°30' E 014°06'1212.2
2014-Apr-14 09:34N 54°42' E 014°02'1514.6
2014-Apr-14 08:33N 54°57' E 013°57'1515.2
2014-Apr-14 07:33N 55°11' E 013°51'1414.0
2014-Apr-14 06:33N 55°25' E 013°49'  

Dump ship's entire track history

sailing weather and tide predictions

Kopernik — SPS2643 — position and weather